Time,TemperatureF,DewpointF,PressureIn,WindDirection,WindDirectionDegrees,WindSpeedMPH,WindSpeedGustMPH,Humidity,HourlyPrecipIn,Conditions,Clouds,dailyrainin,SoftwareType,DateUTC
2013-02-28 00:00:00,40.5,40.5,29.60,SW,217,5.0,5.0,100,0.00,,,1.12,meteohub,2013-02-28 05:00:00,
2013-02-28 00:01:00,40.5,40.5,29.60,SSW,212,3.0,5.0,100,0.00,,,1.12,meteohub,2013-02-28 05:01:00,
2013-02-28 00:06:00,40.5,40.5,29.60,SSW,203,2.0,6.0,100,0.00,,,0.00,meteohub,2013-02-28 05:06:00,
2013-02-28 00:11:00,40.3,40.3,29.60,SW,226,3.0,6.0,100,0.00,,,0.00,meteohub,2013-02-28 05:11:00,
2013-02-28 00:16:00,40.3,40.3,29.60,WSW,257,3.0,6.0,100,0.00,,,0.00,meteohub,2013-02-28 05:16:00,
2013-02-28 00:21:00,40.5,40.5,29.60,WSW,250,2.0,5.0,100,0.00,,,0.00,meteohub,2013-02-28 05:21:00,
2013-02-28 00:26:00,40.5,40.5,29.60,WSW,246,0.0,5.0,100,0.00,,,0.00,meteohub,2013-02-28 05:26:00,
2013-02-28 00:31:00,40.5,40.5,29.61,West,273,1.0,5.0,100,0.00,,,0.00,meteohub,2013-02-28 05:31:00,
2013-02-28 00:36:00,40.5,40.5,29.61,West,271,0.0,4.0,100,0.00,,,0.00,meteohub,2013-02-28 05:36:00,
2013-02-28 00:41:00,40.6,40.6,29.61,WNW,285,0.0,4.0,100,0.00,,,0.00,meteohub,2013-02-28 05:41:00,
2013-02-28 00:46:00,40.6,40.6,29.61,West,263,0.0,5.0,100,0.00,,,0.00,meteohub,2013-02-28 05:46:00,
2013-02-28 00:51:00,40.6,40.6,29.61,WNW,302,3.0,6.0,100,0.00,,,0.00,meteohub,2013-02-28 05:51:00,
2013-02-28 00:56:00,40.6,40.6,29.61,WNW,288,4.0,6.0,100,0.00,,,0.00,meteohub,2013-02-28 05:56:00,
2013-02-28 01:01:00,40.5,40.5,29.61,WNW,293,7.0,8.0,100,0.00,,,0.00,meteohub,2013-02-28 06:01:00,
2013-02-28 01:06:00,39.9,39.9,29.61,West,280,3.0,13.0,100,0.00,,,0.00,meteohub,2013-02-28 06:06:00,
2013-02-28 01:11:00,39.7,39.7,29.61,WNW,293,5.0,13.0,100,0.00,,,0.00,meteohub,2013-02-28 06:11:00,
2013-02-28 01:16:00,39.6,39.6,29.61,WNW,295,6.0,13.0,100,0.00,,,0.00,meteohub,2013-02-28 06:16:00,
2013-02-28 01:21:00,39.4,39.4,29.61,WNW,288,5.0,11.0,100,0.00,,,0.00,meteohub,2013-02-28 06:21:00,
2013-02-28 01:26:00,39.4,39.4,29.61,WNW,295,2.0,11.0,100,0.00,,,0.00,meteohub,2013-02-28 06:26:00,
2013-02-28 01:31:00,39.4,39.4,29.61,WNW,302,3.0,11.0,100,0.00,,,0.00,meteohub,2013-02-28 06:31:00,
2013-02-28 01:36:00,39.2,39.2,29.61,WNW,298,7.0,7.0,100,0.00,,,0.00,meteohub,2013-02-28 06:36:00,
2013-02-28 01:41:00,39.0,39.0,29.61,NW,315,5.0,7.0,100,0.00,,,0.00,meteohub,2013-02-28 06:41:00,
2013-02-28 01:46:00,39.0,39.0,29.61,WNW,298,3.0,7.0,100,0.00,,,0.00,meteohub,2013-02-28 06:46:00,
2013-02-28 01:51:00,39.0,39.0,29.61,NW,308,4.0,7.0,100,0.00,,,0.00,meteohub,2013-02-28 06:51:00,
2013-02-28 01:56:00,39.0,39.0,29.61,NW,311,3.0,7.0,100,0.00,,,0.00,meteohub,2013-02-28 06:56:00,
2013-02-28 02:01:00,39.0,39.0,29.62,WNW,291,2.0,6.0,100,0.00,,,0.00,meteohub,2013-02-28 07:01:00,
2013-02-28 02:07:00,38.8,38.8,29.61,WSW,252,0.0,6.0,100,0.00,,,0.00,meteohub,2013-02-28 07:07:00,
2013-02-28 02:12:00,38.8,38.8,29.61,NW,324,4.0,5.0,100,0.00,,,0.00,meteohub,2013-02-28 07:12:00,
2013-02-28 02:17:00,38.8,38.8,29.60,NNW,348,2.0,5.0,100,0.00,,,0.00,meteohub,2013-02-28 07:17:00,
2013-02-28 02:22:00,38.8,38.8,29.60,NW,324,1.0,6.0,100,0.00,,,0.00,meteohub,2013-02-28 07:22:00,
2013-02-28 02:27:00,38.7,38.7,29.60,WNW,297,2.0,6.0,100,0.00,,,0.00,meteohub,2013-02-28 07:27:00,
2013-02-28 02:32:00,38.7,38.7,29.61,SW,217,1.0,6.0,100,0.00,,,0.00,meteohub,2013-02-28 07:32:00,
2013-02-28 02:37:00,38.5,38.5,29.61,SW,218,0.0,4.0,100,0.00,,,0.00,meteohub,2013-02-28 07:37:00,
2013-02-28 02:42:00,38.5,38.5,29.61,SSW,198,0.0,4.0,100,0.00,,,0.00,meteohub,2013-02-28 07:42:00,
2013-02-28 02:47:00,38.5,38.5,29.61,SW,218,0.0,2.0,100,0.00,,,0.00,meteohub,2013-02-28 07:47:00,
2013-02-28 02:52:00,38.3,38.3,29.61,SW,228,0.0,2.0,100,0.00,,,0.00,meteohub,2013-02-28 07:52:00,
2013-02-28 02:57:00,38.1,38.1,29.61,WSW,252,0.0,2.0,100,0.00,,,0.00,meteohub,2013-02-28 07:57:00,
2013-02-28 03:02:00,37.9,37.9,29.62,SW,228,2.0,2.0,100,0.00,,,0.00,meteohub,2013-02-28 08:02:00,
2013-02-28 03:07:00,37.8,37.8,29.62,SW,218,4.0,4.0,100,0.00,,,0.00,meteohub,2013-02-28 08:07:00,
2013-02-28 03:12:00,37.8,37.8,29.61,WSW,250,0.0,5.0,100,0.00,,,0.00,meteohub,2013-02-28 08:12:00,
2013-02-28 03:17:00,37.6,37.6,29.61,WSW,252,0.0,5.0,100,0.00,,,0.00,meteohub,2013-02-28 08:17:00,
2013-02-28 03:22:00,37.2,37.2,29.62,SW,226,0.0,5.0,100,0.00,,,0.00,meteohub,2013-02-28 08:22:00,
2013-02-28 03:27:00,37.0,37.0,29.62,WSW,258,0.0,3.0,100,0.00,,,0.00,meteohub,2013-02-28 08:27:00,
2013-02-28 03:32:00,37.0,37.0,29.62,West,274,0.0,3.0,100,0.00,,,0.00,meteohub,2013-02-28 08:32:00,
2013-02-28 03:37:00,37.4,37.4,29.62,WSW,252,0.0,3.0,100,0.00,,,0.00,meteohub,2013-02-28 08:37:00,
2013-02-28 03:42:00,37.0,37.0,29.62,WNW,285,1.0,3.0,100,0.00,,,0.00,meteohub,2013-02-28 08:42:00,
2013-02-28 03:47:00,37.2,37.2,29.63,WSW,242,0.0,2.0,100,0.00,,,0.00,meteohub,2013-02-28 08:47:00,
2013-02-28 03:52:00,37.4,37.4,29.63,WSW,242,0.0,2.0,100,0.00,,,0.00,meteohub,2013-02-28 08:52:00,
2013-02-28 03:57:00,37.4,37.4,29.63,WSW,241,0.0,2.0,100,0.00,,,0.00,meteohub,2013-02-28 08:57:00,
2013-02-28 04:02:00,37.2,37.2,29.63,WSW,238,1.0,2.0,100,0.00,,,0.00,meteohub,2013-02-28 09:02:00,
2013-02-28 04:07:00,37.2,37.2,29.64,WSW,255,3.0,3.0,100,0.00,,,0.00,meteohub,2013-02-28 09:07:00,
2013-02-28 04:12:00,37.2,37.2,29.63,West,263,0.0,3.0,100,0.00,,,0.00,meteohub,2013-02-28 09:12:00,
2013-02-28 04:17:00,37.4,37.4,29.63,WNW,284,0.0,3.0,100,0.00,,,0.00,meteohub,2013-02-28 09:17:00,
2013-02-28 04:22:00,37.6,37.6,29.64,SW,236,0.0,3.0,100,0.00,,,0.00,meteohub,2013-02-28 09:22:00,
2013-02-28 04:27:00,37.6,37.6,29.63,WSW,253,0.0,3.0,100,0.00,,,0.00,meteohub,2013-02-28 09:27:00,
2013-02-28 04:32:00,37.6,37.6,29.63,West,274,0.0,3.0,100,0.00,,,0.00,meteohub,2013-02-28 09:32:00,
2013-02-28 04:37:00,37.4,37.4,29.64,SSW,203,0.0,3.0,100,0.00,,,0.00,meteohub,2013-02-28 09:37:00,
2013-02-28 04:42:00,37.6,37.6,29.64,SSE,151,0.0,2.0,100,0.00,,,0.00,meteohub,2013-02-28 09:42:00,
2013-02-28 04:47:00,37.4,37.4,29.64,SSW,203,1.0,1.0,100,0.00,,,0.00,meteohub,2013-02-28 09:47:00,
2013-02-28 04:52:00,37.4,37.4,29.64,SW,228,1.0,1.0,100,0.00,,,0.00,meteohub,2013-02-28 09:52:00,
2013-02-28 04:57:00,37.2,37.2,29.65,West,260,0.0,2.0,100,0.00,,,0.00,meteohub,2013-02-28 09:57:00,
2013-02-28 05:02:00,37.2,37.2,29.65,WSW,255,0.0,2.0,100,0.00,,,0.00,meteohub,2013-02-28 10:02:00,
2013-02-28 05:07:00,37.0,37.0,29.65,WSW,255,0.0,2.0,100,0.00,,,0.00,meteohub,2013-02-28 10:07:00,
2013-02-28 05:12:00,37.0,37.0,29.64,WSW,255,0.0,2.0,100,0.00,,,0.00,meteohub,2013-02-28 10:12:00,
2013-02-28 05:17:00,37.0,37.0,29.64,WSW,255,0.0,2.0,100,0.00,,,0.00,meteohub,2013-02-28 10:17:00,
2013-02-28 05:23:00,36.9,36.9,29.64,WSW,255,0.0,2.0,100,0.00,,,0.00,meteohub,2013-02-28 10:23:00,
2013-02-28 05:28:00,36.9,36.9,29.64,WSW,255,0.0,0.0,100,0.00,,,0.00,meteohub,2013-02-28 10:28:00,
2013-02-28 05:33:00,36.5,36.5,29.64,WNW,290,2.0,0.0,100,0.00,,,0.00,meteohub,2013-02-28 10:33:00,
2013-02-28 05:38:00,36.3,36.3,29.64,WNW,295,2.0,2.0,100,0.00,,,0.00,meteohub,2013-02-28 10:38:00,
2013-02-28 05:43:00,36.3,36.3,29.64,WNW,291,1.0,1.0,100,0.00,,,0.00,meteohub,2013-02-28 10:43:00,
2013-02-28 05:48:00,36.5,36.5,29.64,WNW,287,1.0,4.0,100,0.00,,,0.00,meteohub,2013-02-28 10:48:00,
2013-02-28 05:53:00,36.5,36.5,29.64,WNW,294,3.0,4.0,100,0.00,,,0.00,meteohub,2013-02-28 10:53:00,
2013-02-28 05:58:00,36.3,36.3,29.64,NW,309,1.0,4.0,100,0.00,,,0.00,meteohub,2013-02-28 10:58:00,
2013-02-28 06:03:00,36.5,36.5,29.63,West,264,0.0,4.0,100,0.00,,,0.00,meteohub,2013-02-28 11:03:00,
2013-02-28 06:08:00,36.3,36.3,29.63,NW,304,1.0,3.0,100,0.00,,,0.00,meteohub,2013-02-28 11:08:00,
2013-02-28 06:13:00,36.3,36.3,29.63,NW,318,1.0,3.0,100,0.00,,,0.00,meteohub,2013-02-28 11:13:00,
2013-02-28 06:18:00,36.3,36.3,29.63,NW,311,0.0,2.0,100,0.00,,,0.00,meteohub,2013-02-28 11:18:00,
2013-02-28 06:23:00,36.3,36.3,29.63,WNW,286,1.0,2.0,100,0.00,,,0.00,meteohub,2013-02-28 11:23:00,
2013-02-28 06:28:00,36.3,36.3,29.63,WNW,286,0.0,2.0,100,0.00,,,0.00,meteohub,2013-02-28 11:28:00,
2013-02-28 06:33:00,36.3,36.3,29.63,NW,308,1.0,2.0,100,0.00,,,0.00,meteohub,2013-02-28 11:33:00,
2013-02-28 06:38:00,36.3,36.3,29.63,WNW,282,1.0,2.0,100,0.00,,,0.00,meteohub,2013-02-28 11:38:00,
2013-02-28 06:43:00,36.5,36.5,29.63,WNW,295,1.0,2.0,100,0.00,,,0.00,meteohub,2013-02-28 11:43:00,
2013-02-28 06:48:00,36.5,36.5,29.63,NW,305,0.0,2.0,100,0.00,,,0.00,meteohub,2013-02-28 11:48:00,
2013-02-28 06:53:00,36.5,36.5,29.64,West,281,3.0,3.0,100,0.00,,,0.00,meteohub,2013-02-28 11:53:00,
2013-02-28 06:58:00,36.5,36.5,29.64,WSW,250,0.0,3.0,100,0.00,,,0.00,meteohub,2013-02-28 11:58:00,
2013-02-28 07:03:00,36.3,36.3,29.65,SW,236,0.0,3.0,100,0.00,,,0.00,meteohub,2013-02-28 12:03:00,
2013-02-28 07:08:00,36.5,36.5,29.65,West,262,1.0,4.0,100,0.00,,,0.00,meteohub,2013-02-28 12:08:00,
2013-02-28 07:13:00,36.5,36.5,29.65,WSW,245,0.0,2.0,100,0.00,,,0.00,meteohub,2013-02-28 12:13:00,
2013-02-28 07:18:00,36.5,36.5,29.65,NW,308,1.0,2.0,100,0.00,,,0.00,meteohub,2013-02-28 12:18:00,
2013-02-28 07:23:00,36.7,36.7,29.65,NW,308,1.0,3.0,100,0.00,,,0.00,meteohub,2013-02-28 12:23:00,
2013-02-28 07:28:00,36.7,36.7,29.65,NW,304,0.0,3.0,100,0.00,,,0.00,meteohub,2013-02-28 12:28:00,
2013-02-28 07:33:00,36.7,36.7,29.65,WNW,300,1.0,3.0,100,0.00,,,0.00,meteohub,2013-02-28 12:33:00,
2013-02-28 07:38:00,36.7,36.7,29.65,NW,308,1.0,3.0,100,0.00,,,0.00,meteohub,2013-02-28 12:38:00,
2013-02-28 07:43:00,36.7,36.7,29.65,NW,308,2.0,2.0,100,0.00,,,0.00,meteohub,2013-02-28 12:43:00,
2013-02-28 07:48:00,36.9,36.9,29.65,NNW,343,1.0,3.0,100,0.00,,,0.00,meteohub,2013-02-28 12:48:00,
2013-02-28 07:53:00,37.0,37.0,29.65,NNW,344,2.0,5.0,100,0.00,,,0.00,meteohub,2013-02-28 12:53:00,
2013-02-28 07:59:00,36.9,36.9,29.65,NNW,338,3.0,5.0,100,0.00,,,0.00,meteohub,2013-02-28 12:59:00,
2013-02-28 08:04:00,36.9,36.9,29.65,North,356,5.0,5.0,100,0.00,,,0.00,meteohub,2013-02-28 13:04:00,
2013-02-28 08:09:00,36.9,36.9,29.65,NNW,339,1.0,5.0,100,0.00,,,0.00,meteohub,2013-02-28 13:09:00,
2013-02-28 08:14:00,37.0,37.0,29.66,NNW,342,0.0,5.0,100,0.00,,,0.00,meteohub,2013-02-28 13:14:00,
2013-02-28 08:19:00,37.2,37.2,29.66,SE,132,1.0,5.0,100,0.00,,,0.00,meteohub,2013-02-28 13:19:00,
2013-02-28 08:24:00,37.6,37.6,29.66,ESE,105,0.0,3.0,100,0.00,,,0.00,meteohub,2013-02-28 13:24:00,
2013-02-28 08:29:00,37.8,37.8,29.66,East,84,0.0,3.0,100,0.00,,,0.00,meteohub,2013-02-28 13:29:00,
2013-02-28 08:34:00,37.8,37.8,29.66,NNE,19,1.0,3.0,100,0.00,,,0.00,meteohub,2013-02-28 13:34:00,
2013-02-28 08:39:00,37.9,37.9,29.65,North,358,4.0,4.0,100,0.00,,,0.00,meteohub,2013-02-28 13:39:00,
2013-02-28 08:44:00,38.1,38.1,29.65,NNE,26,1.0,4.0,100,0.00,,,0.00,meteohub,2013-02-28 13:44:00,
2013-02-28 08:49:00,38.5,38.5,29.65,NE,43,4.0,4.0,100,0.00,,,0.00,meteohub,2013-02-28 13:49:00,
2013-02-28 08:54:00,38.7,38.7,29.65,NNW,337,1.0,6.0,100,0.00,,,0.00,meteohub,2013-02-28 13:54:00,
2013-02-28 08:59:00,38.7,38.7,29.65,NNW,340,5.0,6.0,100,0.00,,,0.00,meteohub,2013-02-28 13:59:00,
2013-02-28 09:04:00,39.0,39.0,29.64,North,1,0.0,7.0,100,0.00,,,0.00,meteohub,2013-02-28 14:04:00,
2013-02-28 09:09:00,39.4,39.4,29.64,NNW,334,1.0,7.0,100,0.00,,,0.00,meteohub,2013-02-28 14:09:00,
2013-02-28 09:14:00,39.4,39.4,29.64,ESE,103,0.0,7.0,100,0.00,,,0.00,meteohub,2013-02-28 14:14:00,
2013-02-28 09:19:00,39.9,39.9,29.64,ENE,71,2.0,6.0,100,0.00,,,0.00,meteohub,2013-02-28 14:19:00,
2013-02-28 09:24:00,39.7,39.7,29.64,ESE,112,1.0,6.0,100,0.00,,,0.00,meteohub,2013-02-28 14:24:00,
2013-02-28 09:29:00,39.9,39.9,29.64,NNE,13,2.0,6.0,100,0.00,,,0.00,meteohub,2013-02-28 14:29:00,
2013-02-28 09:34:00,40.3,40.3,29.64,NW,326,0.0,5.0,100,0.00,,,0.00,meteohub,2013-02-28 14:34:00,
2013-02-28 09:39:00,40.6,40.6,29.64,ESE,118,0.0,5.0,100,0.00,,,0.00,meteohub,2013-02-28 14:39:00,
2013-02-28 09:44:00,40.8,40.8,29.64,ESE,107,0.0,4.0,100,0.00,,,0.00,meteohub,2013-02-28 14:44:00,
2013-02-28 09:49:00,41.2,41.2,29.64,ESE,106,0.0,0.0,100,0.00,,,0.00,meteohub,2013-02-28 14:49:00,
2013-02-28 09:54:00,41.5,41.5,29.64,ENE,76,0.0,0.0,100,0.00,,,0.00,meteohub,2013-02-28 14:54:00,
2013-02-28 09:59:00,41.4,41.4,29.64,ESE,120,4.0,4.0,100,0.00,,,0.00,meteohub,2013-02-28 14:59:00,
2013-02-28 10:04:00,40.5,40.3,29.64,ESE,122,3.0,4.0,99,0.00,,,0.00,meteohub,2013-02-28 15:04:00,
2013-02-28 10:09:00,39.9,39.7,29.64,ESE,107,4.0,5.0,99,0.00,,,0.00,meteohub,2013-02-28 15:09:00,
2013-02-28 10:14:00,39.4,39.2,29.64,ENE,69,3.0,6.0,99,0.00,,,0.00,meteohub,2013-02-28 15:14:00,
2013-02-28 10:19:00,39.4,39.2,29.64,East,92,2.0,6.0,99,0.00,,,0.00,meteohub,2013-02-28 15:19:00,
2013-02-28 10:24:00,39.4,39.2,29.64,ESE,106,5.0,6.0,99,0.00,,,0.00,meteohub,2013-02-28 15:24:00,
2013-02-28 10:29:00,39.6,39.4,29.64,East,97,4.0,6.0,99,0.00,,,0.00,meteohub,2013-02-28 15:29:00,
2013-02-28 10:34:00,39.6,39.4,29.64,ESE,118,3.0,6.0,99,0.00,,,0.00,meteohub,2013-02-28 15:34:00,
2013-02-28 10:39:00,39.7,39.6,29.64,ESE,108,0.0,6.0,99,0.00,,,0.00,meteohub,2013-02-28 15:39:00,
2013-02-28 10:44:00,39.7,39.6,29.64,ESE,104,5.0,5.0,99,0.00,,,0.00,meteohub,2013-02-28 15:44:00,
2013-02-28 10:49:00,39.6,39.0,29.64,ESE,104,3.0,5.0,98,0.00,,,0.00,meteohub,2013-02-28 15:49:00,
2013-02-28 10:54:00,39.6,39.0,29.64,East,96,2.0,5.0,98,0.00,,,0.00,meteohub,2013-02-28 15:54:00,
2013-02-28 10:59:00,39.4,38.8,29.64,East,96,2.0,5.0,98,0.00,,,0.00,meteohub,2013-02-28 15:59:00,
2013-02-28 11:04:00,39.0,38.3,29.64,East,96,5.0,5.0,97,0.00,,,0.00,meteohub,2013-02-28 16:04:00,
2013-02-28 11:09:00,38.8,38.1,29.63,ESE,113,3.0,5.0,97,0.00,,,0.00,meteohub,2013-02-28 16:09:00,
2013-02-28 11:14:00,38.8,38.1,29.63,East,91,2.0,5.0,97,0.00,,,0.00,meteohub,2013-02-28 16:14:00,
2013-02-28 11:19:00,38.8,38.1,29.63,ESE,109,2.0,5.0,97,0.00,,,0.00,meteohub,2013-02-28 16:19:00,
2013-02-28 11:25:00,39.0,38.5,29.63,East,99,0.0,5.0,98,0.00,,,0.00,meteohub,2013-02-28 16:25:00,
2013-02-28 11:30:00,39.2,38.7,29.63,East,98,1.0,4.0,98,0.00,,,0.00,meteohub,2013-02-28 16:30:00,
2013-02-28 11:35:00,39.2,38.7,29.63,East,83,0.0,3.0,98,0.00,,,0.00,meteohub,2013-02-28 16:35:00,
2013-02-28 11:40:00,39.4,38.8,29.62,ESE,103,1.0,2.0,98,0.00,,,0.00,meteohub,2013-02-28 16:40:00,
2013-02-28 11:45:00,39.4,38.8,29.62,East,101,2.0,2.0,98,0.00,,,0.00,meteohub,2013-02-28 16:45:00,
2013-02-28 11:50:00,39.6,39.0,29.62,ENE,70,2.0,3.0,98,0.00,,,0.00,meteohub,2013-02-28 16:50:00,
2013-02-28 11:55:00,39.6,38.8,29.62,East,99,1.0,3.0,97,0.00,,,0.00,meteohub,2013-02-28 16:55:00,
2013-02-28 12:00:00,39.7,39.0,29.61,East,91,0.0,3.0,97,0.00,,,0.00,meteohub,2013-02-28 17:00:00,
2013-02-28 12:05:00,40.1,39.4,29.61,East,101,0.0,3.0,97,0.00,,,0.00,meteohub,2013-02-28 17:05:00,
2013-02-28 12:10:00,40.3,39.6,29.61,ESE,105,2.0,3.0,97,0.00,,,0.00,meteohub,2013-02-28 17:10:00,
2013-02-28 12:15:00,40.1,39.0,29.61,ESE,108,4.0,4.0,96,0.00,,,0.00,meteohub,2013-02-28 17:15:00,
2013-02-28 12:20:00,39.7,38.7,29.60,ESE,108,3.0,5.0,96,0.00,,,0.00,meteohub,2013-02-28 17:20:00,
2013-02-28 12:25:00,39.7,38.7,29.60,ESE,110,2.0,5.0,96,0.00,,,0.00,meteohub,2013-02-28 17:25:00,
2013-02-28 12:30:00,39.7,38.7,29.60,East,101,2.0,5.0,96,0.00,,,0.00,meteohub,2013-02-28 17:30:00,
2013-02-28 12:35:00,39.7,38.7,29.60,ESE,108,2.0,5.0,96,0.00,,,0.00,meteohub,2013-02-28 17:35:00,
2013-02-28 12:40:00,39.9,38.8,29.60,ESE,110,1.0,5.0,96,0.00,,,0.00,meteohub,2013-02-28 17:40:00,
2013-02-28 12:45:00,40.1,39.0,29.59,East,79,0.0,5.0,96,0.00,,,0.00,meteohub,2013-02-28 17:45:00,
2013-02-28 12:50:00,40.3,39.2,29.59,East,91,0.0,3.0,96,0.00,,,0.00,meteohub,2013-02-28 17:50:00,
2013-02-28 12:55:00,40.6,39.6,29.59,East,91,0.0,3.0,96,0.00,,,0.00,meteohub,2013-02-28 17:55:00,
2013-02-28 13:00:00,41.0,39.7,29.59,ESE,102,0.0,3.0,95,0.00,,,0.00,meteohub,2013-02-28 18:00:00,
2013-02-28 13:05:00,41.5,40.3,29.58,ENE,65,0.0,2.0,95,0.00,,,0.00,meteohub,2013-02-28 18:05:00,
2013-02-28 13:10:00,41.7,40.1,29.58,NNE,13,0.0,2.0,94,0.00,,,0.00,meteohub,2013-02-28 18:10:00,
2013-02-28 13:15:00,42.3,40.5,29.58,North,6,2.0,3.0,93,0.00,,,0.00,meteohub,2013-02-28 18:15:00,
2013-02-28 13:20:00,42.4,40.3,29.57,NNE,33,0.0,3.0,92,0.00,,,0.00,meteohub,2013-02-28 18:20:00,
2013-02-28 13:25:00,42.6,40.1,29.57,East,86,1.0,3.0,91,0.00,,,0.00,meteohub,2013-02-28 18:25:00,
2013-02-28 13:30:00,43.0,40.5,29.57,ENE,74,0.0,3.0,91,0.00,,,0.00,meteohub,2013-02-28 18:30:00,
2013-02-28 13:35:00,43.0,40.5,29.57,SE,130,0.0,3.0,91,0.00,,,0.00,meteohub,2013-02-28 18:35:00,
2013-02-28 13:40:00,43.3,40.6,29.57,ESE,114,2.0,2.0,90,0.00,,,0.00,meteohub,2013-02-28 18:40:00,
2013-02-28 13:45:00,43.2,40.5,29.57,SE,145,0.0,5.0,90,0.00,,,0.00,meteohub,2013-02-28 18:45:00,
2013-02-28 13:50:00,43.5,40.8,29.56,East,87,2.0,5.0,90,0.00,,,0.00,meteohub,2013-02-28 18:50:00,
2013-02-28 13:55:00,43.3,40.6,29.56,ESE,108,3.0,5.0,90,0.00,,,0.00,meteohub,2013-02-28 18:55:00,
2013-02-28 14:00:00,43.3,40.6,29.56,East,93,4.0,4.0,90,0.00,,,0.00,meteohub,2013-02-28 19:00:00,
2013-02-28 14:05:00,43.3,40.3,29.56,ESE,102,3.0,5.0,89,0.00,,,0.00,meteohub,2013-02-28 19:05:00,
2013-02-28 14:10:00,43.2,40.1,29.56,SE,124,5.0,5.0,89,0.00,,,0.00,meteohub,2013-02-28 19:10:00,
2013-02-28 14:15:00,43.0,39.9,29.56,East,92,5.0,5.0,89,0.00,,,0.00,meteohub,2013-02-28 19:15:00,
2013-02-28 14:21:00,42.8,40.3,29.56,SE,126,6.0,8.0,91,0.00,,,0.00,meteohub,2013-02-28 19:21:00,
2013-02-28 14:26:00,43.0,40.5,29.56,SE,142,2.0,8.0,91,0.00,,,0.00,meteohub,2013-02-28 19:26:00,
2013-02-28 14:31:00,43.0,40.3,29.56,East,97,4.0,7.0,90,0.00,,,0.00,meteohub,2013-02-28 19:31:00,
2013-02-28 14:36:00,43.0,40.3,29.55,East,85,2.0,7.0,90,0.00,,,0.00,meteohub,2013-02-28 19:36:00,
2013-02-28 14:41:00,43.2,40.1,29.56,East,86,2.0,6.0,89,0.00,,,0.00,meteohub,2013-02-28 19:41:00,
2013-02-28 14:46:00,43.0,39.9,29.55,ESE,103,1.0,6.0,89,0.00,,,0.00,meteohub,2013-02-28 19:46:00,
2013-02-28 14:51:00,43.3,40.3,29.55,SE,131,1.0,5.0,89,0.00,,,0.00,meteohub,2013-02-28 19:51:00,
2013-02-28 14:56:00,43.5,40.5,29.55,East,90,1.0,4.0,89,0.00,,,0.00,meteohub,2013-02-28 19:56:00,
2013-02-28 15:01:00,43.9,40.6,29.55,East,92,1.0,4.0,88,0.00,,,0.00,meteohub,2013-02-28 20:01:00,
2013-02-28 15:06:00,43.9,40.6,29.55,ENE,76,0.0,4.0,88,0.00,,,0.00,meteohub,2013-02-28 20:06:00,
2013-02-28 15:11:00,44.2,41.0,29.55,East,98,1.0,4.0,88,0.00,,,0.00,meteohub,2013-02-28 20:11:00,
2013-02-28 15:16:00,44.2,40.6,29.55,ESE,107,0.0,4.0,87,0.00,,,0.00,meteohub,2013-02-28 20:16:00,
2013-02-28 15:21:00,44.4,40.8,29.55,ESE,116,2.0,4.0,87,0.00,,,0.00,meteohub,2013-02-28 20:21:00,
2013-02-28 15:26:00,45.0,41.4,29.55,South,191,0.0,4.0,87,0.00,,,0.00,meteohub,2013-02-28 20:26:00,
2013-02-28 15:31:00,44.4,40.5,29.55,SSW,210,5.0,7.0,86,0.00,,,0.00,meteohub,2013-02-28 20:31:00,
2013-02-28 15:36:00,44.1,40.5,29.56,SSW,211,5.0,7.0,87,0.00,,,0.00,meteohub,2013-02-28 20:36:00,
2013-02-28 15:41:00,43.7,40.1,29.56,SW,217,2.0,7.0,87,0.00,,,0.00,meteohub,2013-02-28 20:41:00,
2013-02-28 15:46:00,43.5,40.3,29.56,SSW,204,5.0,6.0,88,0.00,,,0.00,meteohub,2013-02-28 20:46:00,
2013-02-28 15:51:00,43.3,40.1,29.56,SW,222,4.0,7.0,88,0.00,,,0.00,meteohub,2013-02-28 20:51:00,
2013-02-28 15:56:00,43.2,39.9,29.55,SW,226,3.0,7.0,88,0.00,,,0.00,meteohub,2013-02-28 20:56:00,
2013-02-28 16:01:00,43.0,39.4,29.56,SW,215,5.0,7.0,87,0.00,,,0.00,meteohub,2013-02-28 21:01:00,
2013-02-28 16:06:00,42.6,39.4,29.56,SSW,203,6.0,7.0,88,0.00,,,0.00,meteohub,2013-02-28 21:06:00,
2013-02-28 16:11:00,42.3,38.3,29.56,SSW,201,5.0,8.0,86,0.00,,,0.00,meteohub,2013-02-28 21:11:00,
2013-02-28 16:16:00,42.1,38.1,29.56,SW,219,4.0,8.0,86,0.00,,,0.00,meteohub,2013-02-28 21:16:00,
2013-02-28 16:21:00,41.9,37.9,29.56,SW,222,5.0,8.0,86,0.00,,,0.00,meteohub,2013-02-28 21:21:00,
2013-02-28 16:26:00,41.7,38.1,29.56,SSW,204,6.0,7.0,87,0.00,,,0.00,meteohub,2013-02-28 21:26:00,
2013-02-28 16:31:00,41.5,38.3,29.56,SW,221,4.0,7.0,88,0.00,,,0.00,meteohub,2013-02-28 21:31:00,
2013-02-28 16:37:00,41.5,38.3,29.56,SSW,211,4.0,7.0,88,0.00,,,0.00,meteohub,2013-02-28 21:37:00,
2013-02-28 16:42:00,41.5,38.5,29.55,SSW,193,4.0,7.0,89,0.00,,,0.00,meteohub,2013-02-28 21:42:00,
2013-02-28 16:47:00,41.4,38.1,29.55,SSW,208,3.0,6.0,88,0.00,,,0.00,meteohub,2013-02-28 21:47:00,
2013-02-28 16:52:00,41.2,38.1,29.55,South,172,2.0,6.0,89,0.00,,,0.00,meteohub,2013-02-28 21:52:00,
2013-02-28 16:57:00,41.0,38.3,29.55,SW,222,3.0,6.0,90,0.00,,,0.00,meteohub,2013-02-28 21:57:00,
2013-02-28 17:02:00,41.4,39.0,29.55,WSW,252,0.0,5.0,91,0.01,,,0.01,meteohub,2013-02-28 22:02:00,
2013-02-28 17:07:00,41.2,38.8,29.55,West,278,1.0,4.0,91,0.01,,,0.01,meteohub,2013-02-28 22:07:00,
2013-02-28 17:12:00,40.6,38.3,29.55,West,276,1.0,3.0,91,0.01,,,0.01,meteohub,2013-02-28 22:12:00,
2013-02-28 17:17:00,40.5,38.3,29.55,West,277,0.0,3.0,92,0.01,,,0.01,meteohub,2013-02-28 22:17:00,
2013-02-28 17:22:00,40.5,38.7,29.55,South,191,0.0,3.0,93,0.01,,,0.01,meteohub,2013-02-28 22:22:00,
2013-02-28 17:27:00,40.3,38.7,29.55,South,191,0.0,3.0,94,0.01,,,0.01,meteohub,2013-02-28 22:27:00,
2013-02-28 17:32:00,40.3,38.7,29.55,SSE,166,0.0,1.0,94,0.01,,,0.01,meteohub,2013-02-28 22:32:00,
2013-02-28 17:37:00,40.1,38.5,29.55,SSW,211,0.0,1.0,94,0.01,,,0.01,meteohub,2013-02-28 22:37:00,
2013-02-28 17:42:00,39.9,38.7,29.55,SSW,194,0.0,1.0,95,0.01,,,0.01,meteohub,2013-02-28 22:42:00,
2013-02-28 17:47:00,39.9,38.7,29.55,SSW,194,0.0,1.0,95,0.01,,,0.01,meteohub,2013-02-28 22:47:00,
2013-02-28 17:52:00,39.9,38.7,29.55,SSW,194,0.0,1.0,95,0.01,,,0.01,meteohub,2013-02-28 22:52:00,
2013-02-28 17:57:00,39.9,38.8,29.55,SSW,194,0.0,1.0,96,0.01,,,0.01,meteohub,2013-02-28 22:57:00,
2013-02-28 18:02:00,39.9,38.8,29.55,SSW,194,0.0,0.0,96,0.00,,,0.01,meteohub,2013-02-28 23:02:00,
2013-02-28 18:07:00,39.7,38.7,29.55,SSW,194,0.0,0.0,96,0.00,,,0.01,meteohub,2013-02-28 23:07:00,
2013-02-28 18:12:00,39.7,38.7,29.55,SSW,195,0.0,0.0,96,0.00,,,0.01,meteohub,2013-02-28 23:12:00,
2013-02-28 18:17:00,39.7,38.7,29.55,SSW,195,0.0,0.0,96,0.00,,,0.01,meteohub,2013-02-28 23:17:00,
2013-02-28 18:22:00,39.6,38.5,29.55,SSW,195,0.0,0.0,96,0.00,,,0.01,meteohub,2013-02-28 23:22:00,
2013-02-28 18:27:00,39.6,38.8,29.55,SSW,195,0.0,0.0,97,0.00,,,0.01,meteohub,2013-02-28 23:27:00,
2013-02-28 18:32:00,39.6,38.8,29.55,SSW,195,0.0,0.0,97,0.00,,,0.01,meteohub,2013-02-28 23:32:00,
2013-02-28 18:37:00,39.6,38.8,29.55,SSW,195,0.0,0.0,97,0.00,,,0.01,meteohub,2013-02-28 23:37:00,
2013-02-28 18:42:00,39.6,38.8,29.55,West,270,0.0,0.0,97,0.00,,,0.01,meteohub,2013-02-28 23:42:00,
2013-02-28 18:47:00,39.6,38.8,29.55,West,272,0.0,0.0,97,0.00,,,0.01,meteohub,2013-02-28 23:47:00,
2013-02-28 18:52:00,39.6,38.8,29.55,South,190,1.0,1.0,97,0.00,,,0.01,meteohub,2013-02-28 23:52:00,
2013-02-28 18:57:00,39.4,38.7,29.56,South,184,2.0,3.0,97,0.00,,,0.01,meteohub,2013-02-28 23:57:00,
2013-02-28 19:02:00,39.4,38.8,29.55,SSW,201,1.0,3.0,98,0.00,,,0.01,meteohub,2013-03-01 00:02:00,
2013-02-28 19:07:00,39.6,39.0,29.55,SSW,207,1.0,3.0,98,0.00,,,0.01,meteohub,2013-03-01 00:07:00,
2013-02-28 19:12:00,39.6,39.0,29.55,SSW,205,0.0,3.0,98,0.00,,,0.01,meteohub,2013-03-01 00:12:00,
2013-02-28 19:17:00,39.6,39.0,29.55,SSW,205,0.0,2.0,98,0.00,,,0.01,meteohub,2013-03-01 00:17:00,
2013-02-28 19:22:00,39.4,38.8,29.55,SSW,208,2.0,2.0,98,0.00,,,0.01,meteohub,2013-03-01 00:22:00,
2013-02-28 19:27:00,39.4,38.8,29.56,SW,225,0.0,2.0,98,0.00,,,0.01,meteohub,2013-03-01 00:27:00,
2013-02-28 19:32:00,39.4,38.8,29.56,WSW,246,0.0,2.0,98,0.00,,,0.01,meteohub,2013-03-01 00:32:00,
2013-02-28 19:37:00,39.4,38.8,29.56,WSW,249,0.0,2.0,98,0.00,,,0.01,meteohub,2013-03-01 00:37:00,
2013-02-28 19:42:00,39.2,38.7,29.56,SSW,205,0.0,3.0,98,0.00,,,0.01,meteohub,2013-03-01 00:42:00,
2013-02-28 19:47:00,39.2,38.7,29.56,SW,218,0.0,3.0,98,0.00,,,0.01,meteohub,2013-03-01 00:47:00,
2013-02-28 19:52:00,39.0,38.5,29.56,SSW,212,0.0,3.0,98,0.00,,,0.01,meteohub,2013-03-01 00:52:00,
2013-02-28 19:57:00,39.0,38.5,29.56,SW,214,0.0,2.0,98,0.00,,,0.01,meteohub,2013-03-01 00:57:00,
2013-02-28 20:02:00,39.0,38.5,29.56,SSW,212,0.0,1.0,98,0.00,,,0.01,meteohub,2013-03-01 01:02:00,
2013-02-28 20:07:00,39.0,38.5,29.56,SSW,212,1.0,1.0,98,0.00,,,0.01,meteohub,2013-03-01 01:07:00,
2013-02-28 20:12:00,38.8,38.3,29.56,SSW,193,1.0,1.0,98,0.00,,,0.01,meteohub,2013-03-01 01:12:00,
2013-02-28 20:17:00,39.0,38.5,29.56,SSW,203,0.0,2.0,98,0.00,,,0.01,meteohub,2013-03-01 01:17:00,
2013-02-28 20:22:00,39.4,38.8,29.56,SW,236,0.0,2.0,98,0.00,,,0.01,meteohub,2013-03-01 01:22:00,
2013-02-28 20:27:00,39.4,38.8,29.56,WSW,238,0.0,2.0,98,0.00,,,0.01,meteohub,2013-03-01 01:27:00,
2013-02-28 20:32:00,39.2,38.7,29.56,WSW,242,0.0,1.0,98,0.00,,,0.01,meteohub,2013-03-01 01:32:00,
2013-02-28 20:37:00,39.0,38.3,29.56,WSW,242,0.0,1.0,97,0.00,,,0.01,meteohub,2013-03-01 01:37:00,
2013-02-28 20:42:00,38.8,38.1,29.56,SW,229,0.0,1.0,97,0.00,,,0.01,meteohub,2013-03-01 01:42:00,
2013-02-28 20:47:00,38.8,38.1,29.56,SW,226,0.0,0.0,97,0.00,,,0.01,meteohub,2013-03-01 01:47:00,
2013-02-28 20:52:00,38.8,38.1,29.56,WSW,257,0.0,1.0,97,0.00,,,0.01,meteohub,2013-03-01 01:52:00,
2013-02-28 20:57:00,38.8,38.1,29.56,West,280,0.0,1.0,97,0.00,,,0.01,meteohub,2013-03-01 01:57:00,
2013-02-28 21:02:00,38.8,38.1,29.56,WNW,298,0.0,1.0,97,0.00,,,0.01,meteohub,2013-03-01 02:02:00,
2013-02-28 21:07:00,38.7,37.9,29.55,WNW,298,0.0,1.0,97,0.00,,,0.01,meteohub,2013-03-01 02:07:00,
2013-02-28 21:12:00,38.7,38.1,29.55,WNW,296,0.0,1.0,98,0.00,,,0.01,meteohub,2013-03-01 02:12:00,
2013-02-28 21:17:00,38.7,38.1,29.55,West,281,0.0,1.0,98,0.00,,,0.01,meteohub,2013-03-01 02:17:00,
2013-02-28 21:22:00,38.7,38.1,29.55,West,266,0.0,1.0,98,0.00,,,0.01,meteohub,2013-03-01 02:22:00,
2013-02-28 21:27:00,38.7,38.1,29.55,West,281,0.0,1.0,98,0.00,,,0.01,meteohub,2013-03-01 02:27:00,
2013-02-28 21:32:00,38.7,38.1,29.55,NW,321,0.0,1.0,98,0.00,,,0.01,meteohub,2013-03-01 02:32:00,
2013-02-28 21:37:00,38.8,38.3,29.55,WNW,298,0.0,1.0,98,0.00,,,0.01,meteohub,2013-03-01 02:37:00,
2013-02-28 21:43:00,38.8,38.3,29.55,WNW,299,0.0,1.0,98,0.00,,,0.01,meteohub,2013-03-01 02:43:00,
2013-02-28 21:48:00,38.8,38.3,29.55,WNW,298,0.0,1.0,98,0.00,,,0.01,meteohub,2013-03-01 02:48:00,
2013-02-28 21:53:00,38.8,38.3,29.55,WNW,298,0.0,0.0,98,0.00,,,0.01,meteohub,2013-03-01 02:53:00,
2013-02-28 21:58:00,38.8,38.3,29.55,WNW,298,0.0,0.0,98,0.00,,,0.01,meteohub,2013-03-01 02:58:00,
2013-02-28 22:03:00,38.8,38.3,29.55,WNW,298,0.0,0.0,98,0.00,,,0.01,meteohub,2013-03-01 03:03:00,
2013-02-28 22:08:00,39.0,38.5,29.55,WNW,288,0.0,0.0,98,0.00,,,0.01,meteohub,2013-03-01 03:08:00,
2013-02-28 22:13:00,39.0,38.5,29.55,WNW,288,0.0,1.0,98,0.00,,,0.01,meteohub,2013-03-01 03:13:00,
2013-02-28 22:18:00,39.0,38.3,29.55,NW,312,0.0,1.0,97,0.00,,,0.01,meteohub,2013-03-01 03:18:00,
2013-02-28 22:23:00,39.0,38.3,29.55,WNW,298,0.0,1.0,97,0.00,,,0.01,meteohub,2013-03-01 03:23:00,
2013-02-28 22:28:00,38.8,38.1,29.55,WNW,298,0.0,1.0,97,0.00,,,0.01,meteohub,2013-03-01 03:28:00,
2013-02-28 22:33:00,38.8,38.1,29.55,WNW,298,0.0,1.0,97,0.00,,,0.01,meteohub,2013-03-01 03:33:00,
2013-02-28 22:38:00,38.7,37.9,29.55,WNW,298,0.0,1.0,97,0.00,,,0.01,meteohub,2013-03-01 03:38:00,
2013-02-28 22:43:00,38.5,37.8,29.55,WNW,298,0.0,0.0,97,0.00,,,0.01,meteohub,2013-03-01 03:43:00,
2013-02-28 22:48:00,38.5,37.8,29.55,North,9,0.0,0.0,97,0.00,,,0.01,meteohub,2013-03-01 03:48:00,
2013-02-28 22:53:00,38.7,37.9,29.55,NW,318,0.0,2.0,97,0.00,,,0.01,meteohub,2013-03-01 03:53:00,
2013-02-28 22:58:00,38.7,37.9,29.54,North,352,0.0,2.0,97,0.00,,,0.01,meteohub,2013-03-01 03:58:00,
2013-02-28 23:03:00,38.7,37.9,29.54,NW,312,2.0,2.0,97,0.00,,,0.01,meteohub,2013-03-01 04:03:00,
2013-02-28 23:08:00,38.7,37.9,29.54,WNW,297,1.0,2.0,97,0.00,,,0.01,meteohub,2013-03-01 04:08:00,
2013-02-28 23:13:00,38.7,37.9,29.54,WNW,284,1.0,2.0,97,0.00,,,0.01,meteohub,2013-03-01 04:13:00,
2013-02-28 23:18:00,38.5,37.4,29.54,NW,310,0.0,2.0,96,0.00,,,0.01,meteohub,2013-03-01 04:18:00,
2013-02-28 23:23:00,38.5,37.4,29.54,NW,308,1.0,2.0,96,0.00,,,0.01,meteohub,2013-03-01 04:23:00,
2013-02-28 23:28:00,38.5,37.4,29.54,NW,318,0.0,2.0,96,0.00,,,0.01,meteohub,2013-03-01 04:28:00,
2013-02-28 23:33:00,38.5,37.4,29.54,WNW,298,1.0,2.0,96,0.00,,,0.01,meteohub,2013-03-01 04:33:00,
2013-02-28 23:38:00,38.5,37.4,29.54,NW,316,1.0,2.0,96,0.00,,,0.01,meteohub,2013-03-01 04:38:00,
2013-02-28 23:43:00,38.5,37.2,29.54,NW,322,1.0,3.0,95,0.00,,,0.01,meteohub,2013-03-01 04:43:00,
2013-02-28 23:48:00,38.5,37.2,29.54,NW,308,4.0,4.0,95,0.00,,,0.01,meteohub,2013-03-01 04:48:00,
2013-02-28 23:53:00,38.5,37.2,29.54,WNW,302,2.0,4.0,95,0.00,,,0.01,meteohub,2013-03-01 04:53:00,
2013-02-28 23:58:00,38.3,37.0,29.54,NW,314,2.0,4.0,95,0.00,,,0.01,meteohub,2013-03-01 04:58:00,